Time;durP1;ratioP1;P1;durP2;ratioP2;P2;SDS_P1;SDS_P2;PMS_P1;PMS_P2;Temp;Humidity;BMP_temperature;BMP_pressure;BME280_temperature;BME280_humidity;BME280_pressure;Samples;Min_cycle;Max_cycle;Signal;HPM_P1;HPM_P2
2023/07/19 00:02:07;;;;;;;3.70;1.50;;;;;;;15.46;78.49;100716.28;6049669;28;20030;-68
2023/07/19 00:05:02;;;;;;;4.07;1.40;;;;;;;15.65;79.30;100711.50;6053462;28;20037;-68
2023/07/19 00:07:57;;;;;;;4.85;1.27;;;;;;;16.28;80.09;100703.91;6073676;28;20033;-68
2023/07/19 00:10:53;;;;;;;2.10;1.20;;;;;;;16.58;75.41;100700.25;6059848;28;20083;-67
2023/07/19 00:13:48;;;;;;;2.93;1.33;;;;;;;16.92;73.19;100712.22;6055041;28;20025;-67
2023/07/19 00:16:44;;;;;;;2.43;1.20;;;;;;;16.77;72.17;100692.69;6049464;28;20261;-67
2023/07/19 00:19:39;;;;;;;3.05;1.35;;;;;;;16.98;71.51;100690.91;6050391;28;20835;-67
2023/07/19 00:22:34;;;;;;;5.25;1.77;;;;;;;16.89;70.63;100692.00;6054365;28;20406;-67
2023/07/19 00:25:30;;;;;;;2.77;1.23;;;;;;;17.03;71.30;100698.34;6053503;28;20029;-67
2023/07/19 00:28:25;;;;;;;3.77;1.47;;;;;;;17.01;70.08;100701.22;6054606;28;20030;-67
2023/07/19 00:31:21;;;;;;;5.63;1.30;;;;;;;17.11;70.76;100700.94;6054142;28;20033;-67
2023/07/19 00:34:16;;;;;;;2.95;1.20;;;;;;;17.12;70.35;100691.88;6053646;28;20076;-67
2023/07/19 00:37:11;;;;;;;3.53;1.40;;;;;;;17.29;69.28;100682.56;6053571;28;20030;-67
2023/07/19 00:40:07;;;;;;;4.05;1.20;;;;;;;17.26;68.52;100667.69;6053808;28;20466;-66
2023/07/19 00:43:07;;;;;;;3.70;1.35;;;;;;;17.17;70.08;100671.53;6053866;28;20040;-67
2023/07/19 00:46:03;;;;;;;3.50;1.50;;;;;;;17.00;69.94;100655.88;6074469;28;20030;-67
2023/07/19 00:48:59;;;;;;;3.22;1.40;;;;;;;17.16;71.95;100666.34;6077604;28;20489;-67
2023/07/19 00:51:56;;;;;;;3.50;1.40;;;;;;;17.25;70.98;100660.69;6075757;28;20033;-67
2023/07/19 00:54:51;;;;;;;6.70;1.30;;;;;;;16.98;70.00;100655.22;6062429;28;20030;-67
2023/07/19 00:57:46;;;;;;;2.70;1.50;;;;;;;16.83;70.81;100665.13;6053809;28;20049;-66
2023/07/19 01:00:42;;;;;;;3.97;1.50;;;;;;;16.77;71.52;100660.53;6053296;28;20369;-66
2023/07/19 01:03:37;;;;;;;3.83;1.53;;;;;;;16.55;72.66;100643.59;6051673;28;20363;-66
2023/07/19 01:06:32;;;;;;;5.20;1.60;;;;;;;16.48;73.19;100635.41;6053430;28;20362;-67
2023/07/19 01:09:28;;;;;;;4.15;1.60;;;;;;;16.38;73.96;100639.41;6053218;28;20484;-67
2023/07/19 01:12:24;;;;;;;4.47;1.88;;;;;;;16.31;73.67;100633.94;6059744;28;20037;-66
2023/07/19 01:15:19;;;;;;;5.00;1.48;;;;;;;16.34;74.15;100635.41;6052249;28;20065;-66
2023/07/19 01:18:15;;;;;;;4.50;1.43;;;;;;;16.32;73.93;100640.97;6053402;28;20040;-66
2023/07/19 01:21:10;;;;;;;3.53;1.50;;;;;;;16.16;73.67;100627.78;6052958;28;20037;-66
2023/07/19 01:24:06;;;;;;;4.00;1.33;;;;;;;16.27;73.31;100626.47;6052099;28;20377;-66
2023/07/19 01:27:01;;;;;;;3.72;1.65;;;;;;;16.18;73.93;100641.78;6053112;28;20453;-67
2023/07/19 01:29:56;;;;;;;3.87;1.70;;;;;;;16.38;74.25;100634.03;6053741;28;20042;-67
2023/07/19 01:32:52;;;;;;;4.17;1.40;;;;;;;16.34;73.74;100636.25;6055508;28;20021;-67
2023/07/19 01:35:47;;;;;;;4.77;1.97;;;;;;;16.35;74.84;100618.34;6052192;28;20036;-67
2023/07/19 01:38:42;;;;;;;3.27;1.43;;;;;;;16.28;73.61;100612.91;6053098;28;20030;-67
2023/07/19 01:41:38;;;;;;;3.63;1.80;;;;;;;16.36;73.15;100620.03;6060734;28;20037;-66
2023/07/19 01:44:33;;;;;;;3.07;1.70;;;;;;;16.81;76.92;100624.31;6069624;28;20354;-67
2023/07/19 01:47:28;;;;;;;4.83;1.50;;;;;;;16.86;73.68;100627.25;6067055;28;20264;-67
2023/07/19 01:50:24;;;;;;;3.50;1.47;;;;;;;16.75;73.33;100620.53;6052369;28;20129;-67
2023/07/19 01:53:19;;;;;;;5.60;1.65;;;;;;;16.37;74.27;100635.88;6051514;28;20381;-67
2023/07/19 01:56:14;;;;;;;4.35;1.50;;;;;;;15.72;78.35;100625.03;6051995;28;20030;-67
2023/07/19 01:59:10;;;;;;;4.17;1.50;;;;;;;15.43;79.84;100617.75;6057466;28;20086;-67
2023/07/19 02:02:05;;;;;;;8.13;1.83;;;;;;;15.17;82.27;100611.94;6061542;28;20265;-67
2023/07/19 02:05:00;;;;;;;2.97;1.40;;;;;;;15.63;82.76;100598.56;6051257;28;20038;-67
2023/07/19 02:07:56;;;;;;;4.40;1.80;;;;;;;16.41;81.04;100610.44;5991462;28;20085;-67
2023/07/19 02:10:51;;;;;;;3.75;1.60;;;;;;;16.26;76.87;100598.88;6051743;28;20053;-67
2023/07/19 02:13:47;;;;;;;3.30;1.50;;;;;;;16.16;77.04;100616.25;6050758;28;20030;-67
2023/07/19 02:16:43;;;;;;;3.55;1.42;;;;;;;15.78;78.15;100602.09;6053331;28;20109;-68
2023/07/19 02:19:39;;;;;;;3.63;1.50;;;;;;;15.93;77.54;100621.66;6051510;28;20041;-67
2023/07/19 02:22:34;;;;;;;3.47;1.40;;;;;;;15.71;78.66;100619.91;6051562;28;20052;-67
2023/07/19 02:25:29;;;;;;;3.00;1.47;;;;;;;15.66;79.76;100604.38;6051316;28;20068;-67
2023/07/19 02:28:24;;;;;;;3.10;1.40;;;;;;;15.72;80.86;100613.50;6051390;28;20022;-67
2023/07/19 02:31:20;;;;;;;3.73;1.73;;;;;;;15.37;80.58;100602.44;6051667;28;20026;-67
2023/07/19 02:34:18;;;;;;;3.00;1.53;;;;;;;15.32;82.41;100603.97;6050534;28;20025;-67
2023/07/19 02:37:13;;;;;;;6.50;2.28;;;;;;;15.08;83.11;100604.16;6051553;28;20034;-67
2023/07/19 02:40:09;;;;;;;3.60;1.87;;;;;;;15.01;83.54;100596.03;6051401;28;20034;-67
2023/07/19 02:43:04;;;;;;;5.05;2.00;;;;;;;14.97;83.28;100588.56;6050445;28;20034;-67
2023/07/19 02:45:59;;;;;;;5.57;1.90;;;;;;;14.82;84.20;100588.47;6059316;28;20485;-68
2023/07/19 02:48:55;;;;;;;5.97;1.93;;;;;;;14.70;85.41;100592.56;6066453;28;20289;-67
2023/07/19 02:51:50;;;;;;;4.00;1.75;;;;;;;14.61;85.36;100583.75;6051129;28;20492;-68
2023/07/19 02:54:45;;;;;;;5.00;1.80;;;;;;;14.57;86.43;100602.94;6050440;28;20069;-67
2023/07/19 02:57:41;;;;;;;4.63;1.90;;;;;;;14.37;87.40;100597.22;6059221;28;20029;-67
2023/07/19 03:00:40;;;;;;;5.23;2.83;;;;;;;14.26;88.13;100593.06;6050961;28;20374;-67
2023/07/19 03:03:36;;;;;;;5.22;1.80;;;;;;;14.40;88.79;100604.06;6049998;28;20322;-67
2023/07/19 03:06:31;;;;;;;5.10;1.90;;;;;;;14.69;89.26;100596.22;6050906;28;20034;-67
2023/07/19 03:09:26;;;;;;;4.70;2.00;;;;;;;15.21;87.24;100591.03;6058281;28;20017;-67
2023/07/19 03:12:22;;;;;;;5.97;1.88;;;;;;;15.18;85.98;100583.38;6050996;28;20030;-67
2023/07/19 03:15:17;;;;;;;5.57;1.70;;;;;;;15.04;85.47;100579.66;6052121;28;20040;-67
2023/07/19 03:18:13;;;;;;;6.07;1.80;;;;;;;15.28;83.58;100576.78;6050262;28;20050;-67
2023/07/19 03:21:08;;;;;;;3.95;1.98;;;;;;;14.97;84.39;100570.69;6050612;28;20595;-67
2023/07/19 03:24:03;;;;;;;6.07;2.30;;;;;;;15.01;85.00;100590.69;6049794;28;20514;-67
2023/07/19 03:26:59;;;;;;;4.43;2.28;;;;;;;14.89;86.30;100566.22;6050188;28;20092;-67
2023/07/19 03:29:54;;;;;;;4.43;1.90;;;;;;;14.80;85.79;100566.47;6050173;28;20022;-67
2023/07/19 03:32:51;;;;;;;5.77;2.10;;;;;;;14.89;85.81;100578.78;6050161;28;20045;-67
2023/07/19 03:35:46;;;;;;;5.50;2.05;;;;;;;15.12;85.77;100571.56;6052686;28;20064;-68
2023/07/19 03:38:42;;;;;;;4.27;2.07;;;;;;;15.30;85.10;100565.94;6050124;28;20450;-68
2023/07/19 03:41:38;;;;;;;5.03;1.97;;;;;;;15.43;82.07;100561.63;6050014;28;20261;-68
2023/07/19 03:44:33;;;;;;;5.07;2.03;;;;;;;15.42;81.88;100578.69;6057527;28;20488;-68
2023/07/19 03:47:28;;;;;;;5.43;1.93;;;;;;;15.12;82.63;100582.25;6060159;28;20040;-68
2023/07/19 03:50:24;;;;;;;3.77;1.80;;;;;;;15.01;83.18;100580.00;6071546;28;20045;-68
2023/07/19 03:53:21;;;;;;;4.43;1.90;;;;;;;14.85;85.04;100572.94;6072964;28;20456;-68
2023/07/19 03:56:16;;;;;;;4.65;1.88;;;;;;;14.71;85.61;100575.53;6073909;28;20497;-68
2023/07/19 03:59:12;;;;;;;5.43;1.60;;;;;;;14.90;86.17;100583.06;6061295;28;20040;-68
2023/07/19 04:02:07;;;;;;;2.92;1.67;;;;;;;14.68;86.26;100565.19;6073396;28;20033;-67
2023/07/19 04:05:03;;;;;;;3.17;1.73;;;;;;;14.63;87.19;100571.06;6057339;28;20032;-67
2023/07/19 04:08:01;;;;;;;6.70;2.30;;;;;;;14.71;87.82;100583.53;6049579;28;20025;-66
2023/07/19 04:10:56;;;;;;;4.68;1.80;;;;;;;14.64;87.81;100571.91;6049625;28;20092;-66
2023/07/19 04:13:52;;;;;;;5.30;2.00;;;;;;;14.73;88.72;100578.88;6048863;28;20034;-68
2023/07/19 04:16:47;;;;;;;5.30;2.10;;;;;;;14.93;87.01;100576.56;6062662;28;20109;-66
2023/07/19 04:19:42;;;;;;;4.73;2.13;;;;;;;14.76;87.42;100559.81;6073364;28;20759;-66
2023/07/19 04:22:37;;;;;;;4.90;1.90;;;;;;;14.86;88.22;100563.09;6073250;28;20045;-66
2023/07/19 04:25:33;;;;;;;6.87;2.00;;;;;;;15.27;87.13;100568.97;6072825;28;20040;-67
2023/07/19 04:28:28;;;;;;;6.33;1.87;;;;;;;15.19;86.07;100561.00;6054111;28;20038;-66
2023/07/19 04:31:23;;;;;;;4.00;1.93;;;;;;;15.46;85.14;100569.28;6061808;28;20026;-66
2023/07/19 04:34:20;;;;;;;6.43;2.50;;;;;;;15.70;84.61;100560.22;6060829;28;20589;-67
2023/07/19 04:37:15;;;;;;;5.10;1.80;;;;;;;15.67;82.35;100554.41;6049155;28;20431;-66
2023/07/19 04:40:11;;;;;;;5.40;1.90;;;;;;;15.68;83.12;100558.75;6056872;28;20034;-67
2023/07/19 04:43:06;;;;;;;5.20;2.10;;;;;;;15.64;83.93;100550.25;6049362;28;20026;-67
2023/07/19 04:46:01;;;;;;;4.43;1.90;;;;;;;15.74;84.39;100576.72;6048644;28;20026;-66
2023/07/19 04:48:56;;;;;;;6.15;2.15;;;;;;;15.87;83.97;100552.88;6063207;28;20022;-67
2023/07/19 04:51:52;;;;;;;4.47;1.70;;;;;;;15.88;81.07;100551.84;6048948;28;20393;-69
2023/07/19 04:54:48;;;;;;;4.78;1.83;;;;;;;16.01;80.57;100552.03;6049079;28;20697;-67
2023/07/19 04:57:44;;;;;;;4.22;1.65;;;;;;;16.18;80.53;100572.22;6049210;28;20033;-67
2023/07/19 05:00:39;;;;;;;3.90;2.07;;;;;;;16.24;80.50;100573.31;6048908;28;20716;-67
2023/07/19 05:03:37;;;;;;;5.30;1.70;;;;;;;16.43;80.37;100560.19;6048689;28;20080;-67
2023/07/19 05:06:32;;;;;;;5.82;2.13;;;;;;;16.56;79.33;100554.19;6050866;28;20022;-67
2023/07/19 05:09:28;;;;;;;4.45;1.70;;;;;;;16.62;79.33;100556.97;6053477;28;20033;-67
2023/07/19 05:12:23;;;;;;;3.15;1.48;;;;;;;17.14;79.78;100569.25;6053368;28;20022;-67
2023/07/19 05:15:18;;;;;;;5.20;1.90;;;;;;;17.10;76.76;100554.56;6052021;28;20544;-66
2023/07/19 05:18:14;;;;;;;4.73;1.57;;;;;;;16.91;76.61;100549.81;6073159;28;20165;-67
2023/07/19 05:21:09;;;;;;;4.70;2.00;;;;;;;16.85;77.97;100554.09;6076873;28;20041;-68
2023/07/19 05:24:05;;;;;;;4.60;1.77;;;;;;;16.85;78.92;100561.34;6076338;28;20058;-66
2023/07/19 05:27:00;;;;;;;7.07;2.40;;;;;;;16.77;79.90;100550.75;6077024;28;20017;-67
2023/07/19 05:29:56;;;;;;;4.65;1.50;;;;;;;16.83;78.48;100566.03;6076516;28;20120;-66
2023/07/19 05:32:53;;;;;;;4.20;1.90;;;;;;;17.00;79.76;100564.75;6076780;28;20021;-67
2023/07/19 05:35:48;;;;;;;4.93;1.75;;;;;;;16.88;79.43;100553.72;6075850;28;20460;-67
2023/07/19 05:38:44;;;;;;;5.18;2.00;;;;;;;16.99;77.36;100547.03;6076741;28;20053;-67
2023/07/19 05:41:39;;;;;;;3.60;1.70;;;;;;;17.29;77.77;100551.22;6076606;28;20030;-68
2023/07/19 05:44:35;;;;;;;4.75;1.95;;;;;;;18.14;72.47;100545.63;6075550;28;20128;-67
2023/07/19 05:47:30;;;;;;;3.00;1.53;;;;;;;18.29;70.86;100557.09;6075224;28;20115;-66
2023/07/19 05:50:27;;;;;;;4.73;1.67;;;;;;;18.28;70.17;100547.38;6070441;28;20034;-67
2023/07/19 05:53:22;;;;;;;4.15;1.48;;;;;;;18.94;67.80;100535.00;6075647;28;20636;-67
2023/07/19 05:56:18;;;;;;;3.20;1.60;;;;;;;18.78;67.19;100543.44;6052699;28;20037;-66
2023/07/19 05:59:14;;;;;;;3.80;1.30;;;;;;;19.95;63.06;100544.47;6052414;28;20065;-66
2023/07/19 06:02:09;;;;;;;4.57;1.70;;;;;;;19.07;62.17;100518.88;6052356;28;20109;-65
2023/07/19 06:05:05;;;;;;;5.63;1.50;;;;;;;19.13;64.91;100546.78;6051383;28;20755;-67
2023/07/19 06:08:00;;;;;;;4.68;1.55;;;;;;;19.01;64.38;100539.34;6052078;28;20311;-65
2023/07/19 06:10:56;;;;;;;8.03;1.53;;;;;;;18.80;64.74;100517.19;6051955;28;20021;-66
2023/07/19 06:13:51;;;;;;;4.18;1.67;;;;;;;19.16;65.54;100516.81;6051128;28;20090;-66
2023/07/19 06:16:46;;;;;;;4.70;1.87;;;;;;;19.48;64.51;100526.75;6049745;28;20365;-66
2023/07/19 06:19:42;;;;;;;5.17;1.67;;;;;;;19.56;65.17;100523.84;6050680;28;20473;-66
2023/07/19 06:22:37;;;;;;;3.25;1.73;;;;;;;20.30;61.85;100542.34;6067467;28;20070;-66
2023/07/19 06:25:32;;;;;;;5.17;1.60;;;;;;;20.39;60.87;100530.25;6063055;28;20128;-66
2023/07/19 06:28:28;;;;;;;5.00;1.87;;;;;;;20.28;58.04;100544.41;6051330;28;20807;-66
2023/07/19 06:31:24;;;;;;;6.17;1.60;;;;;;;21.02;57.94;100536.53;6051260;28;20472;-66
2023/07/19 06:34:19;;;;;;;6.35;1.80;;;;;;;21.38;56.08;100543.97;6056123;28;20029;-66
2023/07/19 06:37:14;;;;;;;4.93;1.77;;;;;;;21.67;54.54;100524.38;6074929;28;20067;-67
2023/07/19 06:40:10;;;;;;;3.50;1.88;;;;;;;21.26;55.74;100516.88;6066964;28;20605;-66
2023/07/19 06:43:06;;;;;;;4.30;1.50;;;;;;;21.46;56.27;100527.50;6058532;28;20021;-67
2023/07/19 06:46:01;;;;;;;4.20;1.80;;;;;;;21.65;54.74;100537.28;6050409;28;20018;-65
2023/07/19 06:48:57;;;;;;;3.63;1.70;;;;;;;21.47;55.66;100539.97;6050608;28;20477;-66
2023/07/19 06:51:52;;;;;;;3.38;1.67;;;;;;;21.42;56.66;100545.16;6053072;28;20022;-65
2023/07/19 06:54:47;;;;;;;5.70;1.80;;;;;;;21.39;57.47;100527.53;6064927;28;20039;-66
2023/07/19 06:57:43;;;;;;;4.80;1.80;;;;;;;21.09;56.06;100532.78;6074227;28;20558;-66
2023/07/19 07:00:38;;;;;;;3.43;1.50;;;;;;;21.32;55.71;100541.13;6074350;28;20063;-65
2023/07/19 07:03:34;;;;;;;5.47;1.60;;;;;;;21.42;56.98;100526.28;6073434;28;20044;-67
2023/07/19 07:06:29;;;;;;;2.95;1.50;;;;;;;21.86;53.82;100528.75;6074238;28;20107;-65
2023/07/19 07:09:25;;;;;;;2.87;1.70;;;;;;;22.15;54.02;100533.44;6074258;28;20029;-66
2023/07/19 07:12:21;;;;;;;7.45;1.70;;;;;;;22.73;51.44;100541.88;6053150;28;20022;-65
2023/07/19 07:15:17;;;;;;;3.45;1.73;;;;;;;23.15;49.22;100534.59;6049277;28;20404;-66
2023/07/19 07:18:12;;;;;;;7.07;1.80;;;;;;;23.34;47.98;100538.88;6049578;28;20052;-66
2023/07/19 07:21:07;;;;;;;4.37;1.50;;;;;;;23.00;48.32;100536.91;6050255;28;20272;-66
2023/07/19 07:24:03;;;;;;;3.80;1.80;;;;;;;22.82;47.43;100550.50;6063471;28;20589;-66
2023/07/19 07:26:58;;;;;;;6.47;1.70;;;;;;;22.47;48.09;100532.22;6074313;28;20584;-66
2023/07/19 07:29:54;;;;;;;3.45;1.42;;;;;;;22.58;47.48;100529.81;6073815;28;20033;-66
2023/07/19 07:32:49;;;;;;;3.30;1.47;;;;;;;22.45;49.66;100555.94;6062870;28;20069;-66
2023/07/19 07:35:45;;;;;;;3.35;1.40;;;;;;;21.75;54.07;100553.78;6056753;28;20293;-66
2023/07/19 07:38:40;;;;;;;7.28;1.60;;;;;;;21.76;58.26;100544.66;6049961;28;20056;-66
2023/07/19 07:41:36;;;;;;;3.00;1.43;;;;;;;21.60;55.81;100539.84;6050274;28;20113;-66
2023/07/19 07:44:31;;;;;;;4.00;1.50;;;;;;;21.95;52.42;100538.25;6049990;28;20025;-66
2023/07/19 07:47:26;;;;;;;5.72;1.65;;;;;;;22.16;49.68;100524.28;6049785;28;20034;-66
2023/07/19 07:50:22;;;;;;;5.00;1.33;;;;;;;22.75;48.90;100530.81;6053909;28;20087;-66
2023/07/19 07:53:18;;;;;;;2.17;1.30;;;;;;;22.76;45.72;100527.91;6073002;28;20342;-66
2023/07/19 07:56:13;;;;;;;3.80;1.48;;;;;;;22.48;46.49;100528.47;6073775;28;20053;-66
2023/07/19 07:59:09;;;;;;;3.47;1.52;;;;;;;22.42;46.81;100533.97;6063214;28;20034;-65
2023/07/19 08:02:06;;;;;;;2.77;1.20;;;;;;;22.11;47.59;100529.56;6049556;28;20092;-66
2023/07/19 08:05:01;;;;;;;3.88;1.40;;;;;;;22.50;47.89;100530.94;6049240;28;20026;-67
2023/07/19 08:07:56;;;;;;;3.93;1.40;;;;;;;22.79;47.23;100534.72;6049590;28;20030;-66
2023/07/19 08:10:52;;;;;;;5.40;1.30;;;;;;;22.77;46.07;100526.03;6049841;28;20535;-67
2023/07/19 08:13:47;;;;;;;5.77;1.67;;;;;;;22.66;47.02;100524.09;6049175;28;20104;-67
2023/07/19 08:16:42;;;;;;;3.87;1.40;;;;;;;22.54;45.82;100530.25;6049208;28;20276;-67
2023/07/19 08:19:38;;;;;;;4.00;1.30;;;;;;;22.94;47.71;100527.00;6049470;28;20037;-67
2023/07/19 08:22:35;;;;;;;5.35;1.25;;;;;;;23.21;46.49;100524.72;6049406;28;20084;-66
2023/07/19 08:25:30;;;;;;;3.92;1.20;;;;;;;23.10;46.47;100543.41;6056685;28;20037;-66
2023/07/19 08:28:25;;;;;;;2.37;1.10;;;;;;;22.58;47.22;100521.69;6050085;28;20516;-66
2023/07/19 08:31:23;;;;;;;4.07;1.50;;;;;;;22.37;46.00;100526.53;6049480;28;20597;-66
2023/07/19 08:34:19;;;;;;;3.42;1.33;;;;;;;22.68;45.34;100538.22;6048669;28;20289;-66
2023/07/19 08:37:15;;;;;;;6.38;1.48;;;;;;;22.40;47.41;100531.47;6049046;28;20033;-67
2023/07/19 08:40:14;;;;;;;2.80;1.20;;;;;;;22.49;47.86;100537.41;6049724;28;20470;-66
2023/07/19 08:43:10;;;;;;;4.57;1.40;;;;;;;22.87;46.37;100527.13;6053924;28;20080;-66
2023/07/19 08:46:07;;;;;;;4.63;1.45;;;;;;;22.93;45.38;100525.38;6053531;28;20053;-66
2023/07/19 08:49:02;;;;;;;4.53;1.33;;;;;;;23.04;45.11;100528.13;6052575;28;20030;-66
2023/07/19 08:52:00;;;;;;;3.70;1.30;;;;;;;23.10;45.85;100520.94;6057568;28;20033;-66
2023/07/19 08:54:56;;;;;;;6.18;1.60;;;;;;;23.07;44.99;100522.22;6077056;28;20030;-66
2023/07/19 08:57:51;;;;;;;2.65;1.10;;;;;;;23.24;44.34;100514.25;6077541;28;20064;-67
2023/07/19 09:00:50;;;;;;;6.17;1.70;;;;;;;23.26;44.44;100517.56;6077734;28;20037;-67
2023/07/19 09:03:45;;;;;;;3.00;1.05;;;;;;;23.05;45.61;100529.75;6076810;28;20270;-67
2023/07/19 09:06:43;;;;;;;4.93;1.30;;;;;;;23.19;45.11;100519.53;6072512;28;20042;-67
2023/07/19 09:09:40;;;;;;;6.95;1.50;;;;;;;23.06;44.97;100514.34;6053546;28;20036;-67
2023/07/19 09:12:40;;;;;;;5.65;1.38;;;;;;;23.36;45.53;100520.50;6053285;28;20630;-67
2023/07/19 09:15:36;;;;;;;5.68;1.30;;;;;;;23.50;43.07;100511.13;6041767;28;20110;-67
2023/07/19 09:18:35;;;;;;;3.72;1.15;;;;;;;23.78;43.70;100526.66;6050814;28;20041;-67
2023/07/19 09:21:42;;;;;;;2.35;1.10;;;;;;;24.12;43.18;100525.81;6053254;28;20087;-67
2023/07/19 09:24:52;;;;;;;3.90;1.38;;;;;;;24.19;43.41;100510.22;6052497;28;20441;-66
2023/07/19 09:27:48;;;;;;;3.53;1.35;;;;;;;24.31;43.31;100509.38;6053297;28;20080;-67
2023/07/19 09:30:58;;;;;;;4.17;1.50;;;;;;;24.31;43.33;100514.81;6058219;28;20038;-67
2023/07/19 09:33:55;;;;;;;3.55;1.25;;;;;;;24.51;44.43;100496.22;6054110;28;20037;-67
2023/07/19 09:36:51;;;;;;;5.50;1.60;;;;;;;24.57;43.78;100490.66;6064390;28;20108;-67
2023/07/19 09:39:47;;;;;;;4.88;1.10;;;;;;;24.22;42.61;100489.97;6052502;28;20029;-67
2023/07/19 09:42:42;;;;;;;3.50;1.30;;;;;;;24.19;44.01;100485.00;6051636;28;20523;-67
2023/07/19 09:45:40;;;;;;;4.18;1.65;;;;;;;24.22;43.84;100492.66;6034646;28;20084;-67
2023/07/19 09:48:35;;;;;;;2.60;1.27;;;;;;;24.45;44.72;100491.78;6052770;28;20036;-67
2023/07/19 09:51:31;;;;;;;4.50;1.23;;;;;;;24.40;43.61;100491.69;6052471;28;20026;-67
2023/07/19 09:54:27;;;;;;;5.25;1.45;;;;;;;24.57;44.45;100487.13;6062288;28;20029;-67
2023/07/19 09:57:25;;;;;;;7.10;1.55;;;;;;;24.27;43.65;100490.06;6075096;28;20033;-67
2023/07/19 10:00:21;;;;;;;4.45;1.52;;;;;;;24.20;45.21;100494.81;6063647;28;20042;-67
2023/07/19 10:03:19;;;;;;;4.25;1.60;;;;;;;24.32;45.66;100495.59;6051952;28;20088;-67
2023/07/19 10:06:14;;;;;;;2.25;1.50;;;;;;;24.58;44.82;100481.44;6052304;28;20129;-67
2023/07/19 10:09:22;;;;;;;6.60;1.77;;;;;;;24.02;45.30;100503.06;6051969;28;20481;-67
2023/07/19 10:12:17;;;;;;;3.88;1.45;;;;;;;24.06;45.97;100504.22;6052104;28;20026;-67
2023/07/19 10:15:13;;;;;;;6.70;1.70;;;;;;;24.24;45.77;100479.72;6051610;28;20052;-67
2023/07/19 10:18:12;;;;;;;6.47;1.90;;;;;;;24.42;45.38;100501.22;6051732;28;20117;-67
2023/07/19 10:21:07;;;;;;;4.40;1.80;;;;;;;24.96;45.55;100483.50;6068225;28;20380;-67
2023/07/19 10:24:07;;;;;;;3.00;1.60;;;;;;;25.09;44.35;100482.34;6075197;28;20030;-66
2023/07/19 10:27:06;;;;;;;;;;;;;;;25.60;42.80;100484.81;6075545;28;20025;-67
2023/07/19 10:30:05;;;;;;;3.28;1.40;;;;;;;25.67;42.87;100493.63;6052064;28;20265;-67
2023/07/19 10:33:01;;;;;;;3.53;1.52;;;;;;;25.02;43.14;100493.38;6051473;28;20480;-67
2023/07/19 10:36:03;;;;;;;3.22;1.40;;;;;;;24.94;42.59;100482.94;6050740;28;20057;-67
2023/07/19 10:38:58;;;;;;;3.95;1.73;;;;;;;25.12;43.42;100490.00;6051440;28;20145;-66
2023/07/19 10:41:53;;;;;;;4.43;1.60;;;;;;;24.67;44.02;100482.72;6056812;28;20491;-67
2023/07/19 10:44:49;;;;;;;5.47;1.50;;;;;;;24.97;43.33;100484.34;6050907;28;20065;-67
2023/07/19 10:47:44;;;;;;;3.97;1.57;;;;;;;24.67;42.57;100463.72;6051421;28;20038;-67
2023/07/19 10:50:43;;;;;;;3.37;1.40;;;;;;;24.41;43.80;100486.00;6049840;28;20311;-67
2023/07/19 10:53:45;;;;;;;5.30;1.65;;;;;;;24.03;44.92;100483.03;6057483;28;20319;-67
2023/07/19 10:56:40;;;;;;;4.85;1.52;;;;;;;23.70;46.67;100467.41;6074734;28;20085;-67
2023/07/19 10:59:36;;;;;;;6.07;1.70;;;;;;;24.12;47.09;100468.91;6074989;28;20530;-67
2023/07/19 11:02:31;;;;;;;4.57;1.40;;;;;;;24.88;44.93;100480.38;6074867;28;20036;-66
2023/07/19 11:05:26;;;;;;;5.25;1.50;;;;;;;25.20;43.15;100468.72;6073377;28;20040;-67
2023/07/19 11:08:23;;;;;;;7.55;1.33;;;;;;;25.30;41.91;100474.28;6057046;28;20021;-67
2023/07/19 11:11:18;;;;;;;6.07;1.35;;;;;;;25.44;42.89;100469.34;6050607;28;20037;-67
2023/07/19 11:14:27;;;;;;;7.65;1.60;;;;;;;25.93;40.91;100452.13;6050049;28;20448;-67
2023/07/19 11:17:30;;;;;;;5.10;1.30;;;;;;;25.56;41.93;100478.25;6050611;28;20033;-68
2023/07/19 11:20:31;;;;;;;3.65;1.20;;;;;;;25.03;41.72;100456.22;6060241;28;20044;-67
2023/07/19 11:23:28;;;;;;;4.82;1.50;;;;;;;24.80;42.05;100468.88;6050914;28;20053;-67
2023/07/19 11:26:23;;;;;;;3.63;1.35;;;;;;;25.22;41.75;100463.03;6050580;28;20092;-67
2023/07/19 11:29:18;;;;;;;4.30;1.30;;;;;;;24.95;41.44;100467.50;6050494;28;20033;-67
2023/07/19 11:32:18;;;;;;;2.97;1.20;;;;;;;24.96;41.26;100474.53;6050129;28;20284;-67
2023/07/19 11:35:14;;;;;;;3.60;1.20;;;;;;;25.08;41.37;100449.00;6050547;28;20437;-67
2023/07/19 11:38:09;;;;;;;4.20;0.90;;;;;;;25.20;39.96;100465.16;6050134;28;20022;-67
2023/07/19 11:41:05;;;;;;;2.83;1.10;;;;;;;25.52;39.39;100466.22;6049025;28;20072;-67
2023/07/19 11:44:01;;;;;;;2.63;1.30;;;;;;;26.11;38.73;100448.25;6049398;28;20403;-68
2023/07/19 11:46:57;;;;;;;5.35;1.90;;;;;;;26.48;38.50;100437.53;6050463;28;20030;-66
2023/07/19 11:49:53;;;;;;;3.58;1.30;;;;;;;25.92;39.03;100458.66;6060761;28;20038;-67
2023/07/19 11:52:56;;;;;;;2.95;1.08;;;;;;;25.32;41.11;100455.03;6049686;28;20036;-68
2023/07/19 11:55:52;;;;;;;3.53;1.30;;;;;;;25.58;41.28;100465.22;6071257;28;20018;-69
2023/07/19 11:58:48;;;;;;;5.47;1.23;;;;;;;25.30;41.14;100457.19;6073721;28;20507;-68
2023/07/19 12:01:43;;;;;;;2.47;1.20;;;;;;;25.30;41.34;100463.41;6069155;28;20030;-68
2023/07/19 12:04:38;;;;;;;4.43;1.33;;;;;;;24.76;41.80;100440.53;6049279;28;20061;-68
2023/07/19 12:07:34;;;;;;;3.93;1.50;;;;;;;24.57;43.43;100441.81;6054037;28;20037;-68
2023/07/19 12:10:29;;;;;;;5.00;1.50;;;;;;;25.30;41.03;100446.34;6050431;28;20045;-68
2023/07/19 12:13:25;;;;;;;4.40;1.27;;;;;;;25.60;41.61;100452.22;6048927;28;20026;-68
2023/07/19 12:16:20;;;;;;;4.23;1.13;;;;;;;25.44;41.24;100444.88;6052011;28;20087;-68
2023/07/19 12:19:15;;;;;;;3.20;1.10;;;;;;;25.39;40.23;100455.69;6054331;28;20060;-68
2023/07/19 12:22:11;;;;;;;3.60;1.30;;;;;;;24.94;40.96;100441.41;6054300;28;20025;-67
2023/07/19 12:25:06;;;;;;;2.90;1.17;;;;;;;24.95;42.17;100440.34;6053600;28;20018;-67
2023/07/19 12:28:02;;;;;;;2.67;1.25;;;;;;;25.48;41.69;100454.22;6054318;28;20022;-68
2023/07/19 12:30:57;;;;;;;2.63;1.10;;;;;;;25.61;40.88;100443.00;6071939;28;20522;-68
2023/07/19 12:33:52;;;;;;;3.20;1.07;;;;;;;25.32;40.70;100438.75;6077738;28;20029;-68
2023/07/19 12:36:50;;;;;;;5.18;1.67;;;;;;;24.72;41.95;100436.69;6077999;28;20026;-67
2023/07/19 12:39:45;;;;;;;4.63;1.20;;;;;;;24.73;42.25;100438.31;6078074;28;20040;-68
2023/07/19 12:42:40;;;;;;;6.10;1.50;;;;;;;24.74;41.93;100439.13;6063928;28;20025;-68
2023/07/19 12:45:36;;;;;;;3.23;1.03;;;;;;;24.68;42.22;100437.41;6053563;28;20261;-68
2023/07/19 12:48:31;;;;;;;5.67;1.20;;;;;;;24.64;42.33;100428.94;6054051;28;20268;-68
2023/07/19 12:51:26;;;;;;;4.33;1.20;;;;;;;24.69;43.43;100430.91;6053827;28;20072;-68
2023/07/19 12:54:22;;;;;;;5.33;1.30;;;;;;;25.09;43.00;100417.22;6063346;28;20286;-68
2023/07/19 12:57:17;;;;;;;4.03;1.40;;;;;;;25.36;43.15;100419.00;6077257;28;20029;-68
2023/07/19 13:00:13;;;;;;;4.85;1.45;;;;;;;26.49;40.67;100420.16;6059585;28;20609;-68
2023/07/19 13:03:09;;;;;;;2.42;0.95;;;;;;;26.36;39.90;100413.19;6053785;28;20120;-68
2023/07/19 13:06:04;;;;;;;3.22;1.23;;;;;;;25.95;40.62;100411.91;6052767;28;20044;-67
2023/07/19 13:08:59;;;;;;;2.83;1.30;;;;;;;25.52;41.75;100421.97;6053425;28;20116;-68
2023/07/19 13:11:55;;;;;;;3.35;1.10;;;;;;;25.35;43.14;100406.50;6053275;28;20084;-68
2023/07/19 13:14:50;;;;;;;2.80;1.10;;;;;;;24.99;42.27;100406.22;6052900;28;20457;-68
2023/07/19 13:17:45;;;;;;;2.85;1.10;;;;;;;24.90;41.77;100402.25;6053267;28;20064;-68
2023/07/19 13:20:41;;;;;;;3.77;1.10;;;;;;;25.56;42.65;100404.91;6052997;28;20034;-68
2023/07/19 13:23:36;;;;;;;3.37;1.23;;;;;;;25.84;40.79;100393.88;6053602;28;20385;-68
2023/07/19 13:26:33;;;;;;;3.90;1.30;;;;;;;25.41;41.05;100405.47;6052520;28;20038;-68
2023/07/19 13:29:28;;;;;;;5.25;1.20;;;;;;;25.08;41.70;100399.31;6053244;28;20068;-68
2023/07/19 13:32:24;;;;;;;3.00;1.50;;;;;;;24.76;42.67;100407.16;6052844;28;20042;-68
2023/07/19 13:35:19;;;;;;;6.70;1.60;;;;;;;24.90;43.74;100404.97;6052058;28;20373;-68
2023/07/19 13:38:15;;;;;;;3.20;1.23;;;;;;;25.69;41.55;100388.22;6053689;28;20374;-68